sensor_id;sensor_type;location;lat;lon;timestamp;temperature;humidity
73780;SHT30;62093;37.614;15.072;2023-07-09T00:00:14;24.78;59.61
73780;SHT30;62093;37.614;15.072;2023-07-09T00:02:40;24.79;59.59
73780;SHT30;62093;37.614;15.072;2023-07-09T00:05:11;24.81;59.65
73780;SHT30;62093;37.614;15.072;2023-07-09T00:07:37;24.82;59.63
73780;SHT30;62093;37.614;15.072;2023-07-09T00:10:03;24.78;59.64
73780;SHT30;62093;37.614;15.072;2023-07-09T00:12:29;24.77;59.66
73780;SHT30;62093;37.614;15.072;2023-07-09T00:14:55;24.77;59.69
73780;SHT30;62093;37.614;15.072;2023-07-09T00:17:33;24.78;59.71
73780;SHT30;62093;37.614;15.072;2023-07-09T00:19:59;24.79;59.73
73780;SHT30;62093;37.614;15.072;2023-07-09T00:22:25;24.79;59.70
73780;SHT30;62093;37.614;15.072;2023-07-09T00:24:52;24.77;59.73
73780;SHT30;62093;37.614;15.072;2023-07-09T00:27:25;24.77;59.75
73780;SHT30;62093;37.614;15.072;2023-07-09T00:29:52;24.75;59.76
73780;SHT30;62093;37.614;15.072;2023-07-09T00:32:20;24.78;59.73
73780;SHT30;62093;37.614;15.072;2023-07-09T00:34:47;24.77;59.74
73780;SHT30;62093;37.614;15.072;2023-07-09T00:37:19;24.74;59.76
73780;SHT30;62093;37.614;15.072;2023-07-09T00:39:46;24.77;59.78
73780;SHT30;62093;37.614;15.072;2023-07-09T00:42:15;24.75;59.80
73780;SHT30;62093;37.614;15.072;2023-07-09T00:44:44;24.77;59.77
73780;SHT30;62093;37.614;15.072;2023-07-09T00:50:06;24.77;59.80
73780;SHT30;62093;37.614;15.072;2023-07-09T00:52:39;24.74;59.83
73780;SHT30;62093;37.614;15.072;2023-07-09T00:55:14;24.74;59.83
73780;SHT30;62093;37.614;15.072;2023-07-09T00:57:46;24.75;59.85
73780;SHT30;62093;37.614;15.072;2023-07-09T01:02:51;24.75;59.86
73780;SHT30;62093;37.614;15.072;2023-07-09T01:05:17;24.74;59.87
73780;SHT30;62093;37.614;15.072;2023-07-09T01:07:46;24.74;59.90
73780;SHT30;62093;37.614;15.072;2023-07-09T01:10:14;24.72;59.87
73780;SHT30;62093;37.614;15.072;2023-07-09T01:12:40;24.72;59.90
73780;SHT30;62093;37.614;15.072;2023-07-09T01:15:07;24.74;59.91
73780;SHT30;62093;37.614;15.072;2023-07-09T01:17:34;24.74;59.94
73780;SHT30;62093;37.614;15.072;2023-07-09T01:19:59;24.74;59.96
73780;SHT30;62093;37.614;15.072;2023-07-09T01:22:25;24.74;59.95
73780;SHT30;62093;37.614;15.072;2023-07-09T01:25:03;24.72;59.95
73780;SHT30;62093;37.614;15.072;2023-07-09T01:27:38;24.72;59.96
73780;SHT30;62093;37.614;15.072;2023-07-09T01:30:08;24.71;60.00
73780;SHT30;62093;37.614;15.072;2023-07-09T01:32:34;24.72;60.01
73780;SHT30;62093;37.614;15.072;2023-07-09T01:35:02;24.71;59.98
73780;SHT30;62093;37.614;15.072;2023-07-09T01:37:31;24.69;60.03
73780;SHT30;62093;37.614;15.072;2023-07-09T01:39:58;24.67;60.01
73780;SHT30;62093;37.614;15.072;2023-07-09T01:42:25;24.69;60.04
73780;SHT30;62093;37.614;15.072;2023-07-09T01:44:53;24.69;60.04
73780;SHT30;62093;37.614;15.072;2023-07-09T01:47:20;24.71;60.06
73780;SHT30;62093;37.614;15.072;2023-07-09T01:49:46;24.71;60.08
73780;SHT30;62093;37.614;15.072;2023-07-09T01:52:14;24.69;60.05
73780;SHT30;62093;37.614;15.072;2023-07-09T01:54:41;24.72;60.07
73780;SHT30;62093;37.614;15.072;2023-07-09T01:57:26;24.69;60.13
73780;SHT30;62093;37.614;15.072;2023-07-09T02:00:06;24.68;60.13
73780;SHT30;62093;37.614;15.072;2023-07-09T02:02:41;24.71;60.12
73780;SHT30;62093;37.614;15.072;2023-07-09T02:05:13;24.68;60.14
73780;SHT30;62093;37.614;15.072;2023-07-09T02:07:40;24.68;60.16
73780;SHT30;62093;37.614;15.072;2023-07-09T02:10:06;24.69;60.15
73780;SHT30;62093;37.614;15.072;2023-07-09T02:12:33;24.68;60.18
73780;SHT30;62093;37.614;15.072;2023-07-09T02:14:58;24.69;60.17
73780;SHT30;62093;37.614;15.072;2023-07-09T02:17:24;24.69;60.18
73780;SHT30;62093;37.614;15.072;2023-07-09T02:19:51;24.68;60.22
73780;SHT30;62093;37.614;15.072;2023-07-09T02:22:16;24.69;60.24
73780;SHT30;62093;37.614;15.072;2023-07-09T02:24:44;24.68;60.24
73780;SHT30;62093;37.614;15.072;2023-07-09T02:27:14;24.69;60.23
73780;SHT30;62093;37.614;15.072;2023-07-09T02:29:41;24.68;60.28
73780;SHT30;62093;37.614;15.072;2023-07-09T02:32:07;24.67;60.29
73780;SHT30;62093;37.614;15.072;2023-07-09T02:34:33;24.67;60.26
73780;SHT30;62093;37.614;15.072;2023-07-09T02:37:00;24.65;60.31
73780;SHT30;62093;37.614;15.072;2023-07-09T02:39:26;24.67;60.29
73780;SHT30;62093;37.614;15.072;2023-07-09T02:41:53;24.67;60.35
73780;SHT30;62093;37.614;15.072;2023-07-09T02:44:20;24.68;60.32
73780;SHT30;62093;37.614;15.072;2023-07-09T02:46:46;24.65;60.34
73780;SHT30;62093;37.614;15.072;2023-07-09T02:49:14;24.65;60.37
73780;SHT30;62093;37.614;15.072;2023-07-09T02:51:40;24.67;60.37
73780;SHT30;62093;37.614;15.072;2023-07-09T02:54:06;24.68;60.38
73780;SHT30;62093;37.614;15.072;2023-07-09T02:56:32;24.67;60.42
73780;SHT30;62093;37.614;15.072;2023-07-09T02:58:58;24.64;60.41
73780;SHT30;62093;37.614;15.072;2023-07-09T03:01:25;24.64;60.44
73780;SHT30;62093;37.614;15.072;2023-07-09T03:03:54;24.65;60.41
73780;SHT30;62093;37.614;15.072;2023-07-09T03:06:21;24.65;60.44
73780;SHT30;62093;37.614;15.072;2023-07-09T03:08:47;24.67;60.44
73780;SHT30;62093;37.614;15.072;2023-07-09T03:11:14;24.64;60.44
73780;SHT30;62093;37.614;15.072;2023-07-09T03:13:41;24.64;60.44
73780;SHT30;62093;37.614;15.072;2023-07-09T03:16:07;24.64;60.46
73780;SHT30;62093;37.614;15.072;2023-07-09T03:18:33;24.65;60.45
73780;SHT30;62093;37.614;15.072;2023-07-09T03:20:59;24.65;60.49
73780;SHT30;62093;37.614;15.072;2023-07-09T03:23:25;24.64;60.47
73780;SHT30;62093;37.614;15.072;2023-07-09T03:25:51;24.67;60.51
73780;SHT30;62093;37.614;15.072;2023-07-09T03:28:17;24.63;60.52
73780;SHT30;62093;37.614;15.072;2023-07-09T03:30:44;24.63;60.54
73780;SHT30;62093;37.614;15.072;2023-07-09T03:33:11;24.61;60.52
73780;SHT30;62093;37.614;15.072;2023-07-09T03:35:37;24.60;60.53
73780;SHT30;62093;37.614;15.072;2023-07-09T03:38:07;24.61;60.56
73780;SHT30;62093;37.614;15.072;2023-07-09T03:40:34;24.61;60.57
73780;SHT30;62093;37.614;15.072;2023-07-09T03:43:00;24.60;60.59
73780;SHT30;62093;37.614;15.072;2023-07-09T03:45:26;24.58;60.59
73780;SHT30;62093;37.614;15.072;2023-07-09T03:47:52;24.61;60.57
73780;SHT30;62093;37.614;15.072;2023-07-09T03:50:18;24.61;60.61
73780;SHT30;62093;37.614;15.072;2023-07-09T03:52:44;24.60;60.60
73780;SHT30;62093;37.614;15.072;2023-07-09T03:55:09;24.60;60.62
73780;SHT30;62093;37.614;15.072;2023-07-09T03:57:36;24.58;60.64
73780;SHT30;62093;37.614;15.072;2023-07-09T04:00:03;24.60;60.64
73780;SHT30;62093;37.614;15.072;2023-07-09T04:02:41;24.58;60.65
73780;SHT30;62093;37.614;15.072;2023-07-09T04:05:09;24.57;60.62
73780;SHT30;62093;37.614;15.072;2023-07-09T04:07:36;24.58;60.65
73780;SHT30;62093;37.614;15.072;2023-07-09T04:10:03;24.58;60.67
73780;SHT30;62093;37.614;15.072;2023-07-09T04:12:28;24.56;60.65
73780;SHT30;62093;37.614;15.072;2023-07-09T04:14:54;24.57;60.70
73780;SHT30;62093;37.614;15.072;2023-07-09T04:17:20;24.57;60.72
73780;SHT30;62093;37.614;15.072;2023-07-09T04:19:51;24.56;60.73
73780;SHT30;62093;37.614;15.072;2023-07-09T04:22:17;24.56;60.68
73780;SHT30;62093;37.614;15.072;2023-07-09T04:24:43;24.56;60.70
73780;SHT30;62093;37.614;15.072;2023-07-09T04:27:09;24.56;60.74
73780;SHT30;62093;37.614;15.072;2023-07-09T04:29:35;24.56;60.76
73780;SHT30;62093;37.614;15.072;2023-07-09T04:32:02;24.54;60.75
73780;SHT30;62093;37.614;15.072;2023-07-09T04:34:28;24.57;60.79
73780;SHT30;62093;37.614;15.072;2023-07-09T04:36:54;24.56;60.75
73780;SHT30;62093;37.614;15.072;2023-07-09T04:39:20;24.58;60.75
73780;SHT30;62093;37.614;15.072;2023-07-09T04:41:47;24.56;60.78
73780;SHT30;62093;37.614;15.072;2023-07-09T04:44:13;24.56;60.79
73780;SHT30;62093;37.614;15.072;2023-07-09T04:46:38;24.54;60.78
73780;SHT30;62093;37.614;15.072;2023-07-09T04:49:04;24.57;60.79
73780;SHT30;62093;37.614;15.072;2023-07-09T04:51:30;24.57;60.80
73780;SHT30;62093;37.614;15.072;2023-07-09T04:53:57;24.56;60.83
73780;SHT30;62093;37.614;15.072;2023-07-09T04:56:23;24.56;60.83
73780;SHT30;62093;37.614;15.072;2023-07-09T04:58:49;24.53;60.80
73780;SHT30;62093;37.614;15.072;2023-07-09T05:01:15;24.56;60.82
73780;SHT30;62093;37.614;15.072;2023-07-09T05:03:41;24.54;60.87
73780;SHT30;62093;37.614;15.072;2023-07-09T05:06:06;24.56;60.84
73780;SHT30;62093;37.614;15.072;2023-07-09T05:08:32;24.56;60.86
73780;SHT30;62093;37.614;15.072;2023-07-09T05:10:58;24.56;60.85
73780;SHT30;62093;37.614;15.072;2023-07-09T05:13:24;24.56;60.86
73780;SHT30;62093;37.614;15.072;2023-07-09T05:15:51;24.57;60.86
73780;SHT30;62093;37.614;15.072;2023-07-09T05:18:17;24.56;60.87
73780;SHT30;62093;37.614;15.072;2023-07-09T05:20:46;24.56;60.88
73780;SHT30;62093;37.614;15.072;2023-07-09T05:23:12;24.54;60.90
73780;SHT30;62093;37.614;15.072;2023-07-09T05:25:38;24.53;60.89
73780;SHT30;62093;37.614;15.072;2023-07-09T05:28:05;24.54;60.85
73780;SHT30;62093;37.614;15.072;2023-07-09T05:30:31;24.54;60.93
73780;SHT30;62093;37.614;15.072;2023-07-09T05:32:57;24.56;60.89
73780;SHT30;62093;37.614;15.072;2023-07-09T05:35:24;24.57;60.89
73780;SHT30;62093;37.614;15.072;2023-07-09T05:37:52;24.56;60.89
73780;SHT30;62093;37.614;15.072;2023-07-09T05:40:18;24.56;60.89
73780;SHT30;62093;37.614;15.072;2023-07-09T05:42:43;24.57;60.89
73780;SHT30;62093;37.614;15.072;2023-07-09T05:45:10;24.56;60.87
73780;SHT30;62093;37.614;15.072;2023-07-09T05:47:36;24.58;60.91
73780;SHT30;62093;37.614;15.072;2023-07-09T05:50:03;24.57;60.87
73780;SHT30;62093;37.614;15.072;2023-07-09T05:52:29;24.56;60.94
73780;SHT30;62093;37.614;15.072;2023-07-09T05:54:55;24.56;60.89
73780;SHT30;62093;37.614;15.072;2023-07-09T05:57:22;24.60;60.94
73780;SHT30;62093;37.614;15.072;2023-07-09T05:59:48;24.57;60.96
73780;SHT30;62093;37.614;15.072;2023-07-09T06:02:15;24.57;60.92
73780;SHT30;62093;37.614;15.072;2023-07-09T06:04:41;24.58;60.93
73780;SHT30;62093;37.614;15.072;2023-07-09T06:07:08;24.57;60.94
73780;SHT30;62093;37.614;15.072;2023-07-09T06:09:35;24.58;60.92
73780;SHT30;62093;37.614;15.072;2023-07-09T06:12:03;24.60;60.93
73780;SHT30;62093;37.614;15.072;2023-07-09T06:14:30;24.58;60.96
73780;SHT30;62093;37.614;15.072;2023-07-09T06:16:58;24.57;60.94
73780;SHT30;62093;37.614;15.072;2023-07-09T06:19:24;24.60;60.94
73780;SHT30;62093;37.614;15.072;2023-07-09T06:21:49;24.58;60.95
73780;SHT30;62093;37.614;15.072;2023-07-09T06:24:34;24.58;60.98
73780;SHT30;62093;37.614;15.072;2023-07-09T06:27:00;24.58;60.99
73780;SHT30;62093;37.614;15.072;2023-07-09T06:29:26;24.58;60.99
73780;SHT30;62093;37.614;15.072;2023-07-09T06:31:51;24.58;61.00
73780;SHT30;62093;37.614;15.072;2023-07-09T06:34:17;24.58;60.99
73780;SHT30;62093;37.614;15.072;2023-07-09T06:36:43;24.60;61.00
73780;SHT30;62093;37.614;15.072;2023-07-09T06:39:09;24.58;61.03
73780;SHT30;62093;37.614;15.072;2023-07-09T06:41:35;24.60;61.00
73780;SHT30;62093;37.614;15.072;2023-07-09T06:44:06;24.60;61.02
73780;SHT30;62093;37.614;15.072;2023-07-09T06:46:32;24.58;61.01
73780;SHT30;62093;37.614;15.072;2023-07-09T06:48:58;24.58;61.02
73780;SHT30;62093;37.614;15.072;2023-07-09T06:51:24;24.60;61.02
73780;SHT30;62093;37.614;15.072;2023-07-09T06:53:49;24.56;61.01
73780;SHT30;62093;37.614;15.072;2023-07-09T06:56:17;24.57;61.04
73780;SHT30;62093;37.614;15.072;2023-07-09T06:58:43;24.57;61.02
73780;SHT30;62093;37.614;15.072;2023-07-09T07:01:11;24.56;61.04
73780;SHT30;62093;37.614;15.072;2023-07-09T07:03:37;24.60;61.01
73780;SHT30;62093;37.614;15.072;2023-07-09T07:06:03;24.58;61.04
73780;SHT30;62093;37.614;15.072;2023-07-09T07:08:30;24.61;61.06
73780;SHT30;62093;37.614;15.072;2023-07-09T07:10:58;24.57;61.05
73780;SHT30;62093;37.614;15.072;2023-07-09T07:13:35;24.58;61.04
73780;SHT30;62093;37.614;15.072;2023-07-09T07:16:03;24.60;61.06
73780;SHT30;62093;37.614;15.072;2023-07-09T07:18:30;24.58;61.06
73780;SHT30;62093;37.614;15.072;2023-07-09T07:20:55;24.58;61.06
73780;SHT30;62093;37.614;15.072;2023-07-09T07:23:21;24.60;61.09
73780;SHT30;62093;37.614;15.072;2023-07-09T07:25:47;24.61;61.09
73780;SHT30;62093;37.614;15.072;2023-07-09T07:28:13;24.60;61.09
73780;SHT30;62093;37.614;15.072;2023-07-09T07:30:39;24.60;61.06
73780;SHT30;62093;37.614;15.072;2023-07-09T07:33:05;24.60;61.09
73780;SHT30;62093;37.614;15.072;2023-07-09T07:35:30;24.63;61.10
73780;SHT30;62093;37.614;15.072;2023-07-09T07:37:56;24.60;61.08
73780;SHT30;62093;37.614;15.072;2023-07-09T07:40:22;24.63;61.10
73780;SHT30;62093;37.614;15.072;2023-07-09T07:42:48;24.61;61.10
73780;SHT30;62093;37.614;15.072;2023-07-09T07:45:14;24.61;61.06
73780;SHT30;62093;37.614;15.072;2023-07-09T07:47:40;24.60;61.06
73780;SHT30;62093;37.614;15.072;2023-07-09T07:50:07;24.64;61.10
73780;SHT30;62093;37.614;15.072;2023-07-09T07:52:33;24.61;61.10
73780;SHT30;62093;37.614;15.072;2023-07-09T07:55:08;24.63;61.05
73780;SHT30;62093;37.614;15.072;2023-07-09T07:57:35;24.63;61.09
73780;SHT30;62093;37.614;15.072;2023-07-09T08:00:00;24.64;61.10
73780;SHT30;62093;37.614;15.072;2023-07-09T08:02:26;24.64;61.06
73780;SHT30;62093;37.614;15.072;2023-07-09T08:04:52;24.63;61.08
73780;SHT30;62093;37.614;15.072;2023-07-09T08:07:19;24.64;61.10
73780;SHT30;62093;37.614;15.072;2023-07-09T08:09:45;24.65;61.10
73780;SHT30;62093;37.614;15.072;2023-07-09T08:12:13;24.67;61.08
73780;SHT30;62093;37.614;15.072;2023-07-09T08:14:40;24.64;61.08
73780;SHT30;62093;37.614;15.072;2023-07-09T08:17:07;24.65;61.09
73780;SHT30;62093;37.614;15.072;2023-07-09T08:19:46;24.68;61.07
73780;SHT30;62093;37.614;15.072;2023-07-09T08:22:13;24.65;61.08
73780;SHT30;62093;37.614;15.072;2023-07-09T08:24:39;24.69;61.03
73780;SHT30;62093;37.614;15.072;2023-07-09T08:27:09;24.68;61.08
73780;SHT30;62093;37.614;15.072;2023-07-09T08:29:35;24.65;61.06
73780;SHT30;62093;37.614;15.072;2023-07-09T08:32:02;24.68;61.06
73780;SHT30;62093;37.614;15.072;2023-07-09T08:34:28;24.68;61.05
73780;SHT30;62093;37.614;15.072;2023-07-09T08:36:54;24.69;61.02
73780;SHT30;62093;37.614;15.072;2023-07-09T08:39:20;24.69;60.99
73780;SHT30;62093;37.614;15.072;2023-07-09T08:41:50;24.71;61.03
73780;SHT30;62093;37.614;15.072;2023-07-09T08:49:21;24.74;61.01
73780;SHT30;62093;37.614;15.072;2023-07-09T08:51:49;24.72;61.03
73780;SHT30;62093;37.614;15.072;2023-07-09T08:54:25;24.74;60.99
73780;SHT30;62093;37.614;15.072;2023-07-09T08:56:52;24.72;61.01
73780;SHT30;62093;37.614;15.072;2023-07-09T08:59:19;24.74;60.98
73780;SHT30;62093;37.614;15.072;2023-07-09T09:01:52;24.74;60.98
73780;SHT30;62093;37.614;15.072;2023-07-09T09:04:31;24.74;60.98
73780;SHT30;62093;37.614;15.072;2023-07-09T09:07:12;24.72;60.97
73780;SHT30;62093;37.614;15.072;2023-07-09T09:09:51;24.77;60.94
73780;SHT30;62093;37.614;15.072;2023-07-09T09:12:58;24.77;60.94
73780;SHT30;62093;37.614;15.072;2023-07-09T09:15:18;24.77;60.93
73780;SHT30;62093;37.614;15.072;2023-07-09T09:17:50;24.78;60.93
73780;SHT30;62093;37.614;15.072;2023-07-09T09:20:20;24.79;60.94
73780;SHT30;62093;37.614;15.072;2023-07-09T09:25:33;24.81;60.91
73780;SHT30;62093;37.614;15.072;2023-07-09T09:28:01;24.81;60.89
73780;SHT30;62093;37.614;15.072;2023-07-09T09:30:28;24.82;60.87
73780;SHT30;62093;37.614;15.072;2023-07-09T09:33:02;24.79;60.88
73780;SHT30;62093;37.614;15.072;2023-07-09T09:35:33;24.81;60.89
73780;SHT30;62093;37.614;15.072;2023-07-09T09:38:00;24.81;60.85
73780;SHT30;62093;37.614;15.072;2023-07-09T09:40:29;24.84;60.85
73780;SHT30;62093;37.614;15.072;2023-07-09T09:42:58;24.85;60.85
73780;SHT30;62093;37.614;15.072;2023-07-09T09:45:31;24.85;60.81
73780;SHT30;62093;37.614;15.072;2023-07-09T09:48:00;24.85;60.82
73780;SHT30;62093;37.614;15.072;2023-07-09T09:50:32;24.85;60.83
73780;SHT30;62093;37.614;15.072;2023-07-09T09:52:59;24.85;60.82
73780;SHT30;62093;37.614;15.072;2023-07-09T09:55:29;24.87;60.86
73780;SHT30;62093;37.614;15.072;2023-07-09T09:57:56;24.88;60.81
73780;SHT30;62093;37.614;15.072;2023-07-09T10:00:24;24.88;60.82
73780;SHT30;62093;37.614;15.072;2023-07-09T10:02:56;24.88;60.78
73780;SHT30;62093;37.614;15.072;2023-07-09T10:06:10;24.89;60.78
73780;SHT30;62093;37.614;15.072;2023-07-09T10:08:42;24.89;60.77
73780;SHT30;62093;37.614;15.072;2023-07-09T10:13:45;24.89;60.76
73780;SHT30;62093;37.614;15.072;2023-07-09T10:16:21;24.91;60.79
73780;SHT30;62093;37.614;15.072;2023-07-09T10:21:34;24.92;60.74
73780;SHT30;62093;37.614;15.072;2023-07-09T10:26:51;24.92;60.73
73780;SHT30;62093;37.614;15.072;2023-07-09T10:31:52;24.92;60.71
73780;SHT30;62093;37.614;15.072;2023-07-09T10:40:04;24.96;60.72
73780;SHT30;62093;37.614;15.072;2023-07-09T10:42:52;24.95;60.64
73780;SHT30;62093;37.614;15.072;2023-07-09T10:45:34;24.96;60.65
73780;SHT30;62093;37.614;15.072;2023-07-09T10:48:12;24.95;60.68
73780;SHT30;62093;37.614;15.072;2023-07-09T10:50:41;24.98;60.66
73780;SHT30;62093;37.614;15.072;2023-07-09T10:53:45;24.95;60.65
73780;SHT30;62093;37.614;15.072;2023-07-09T10:56:22;24.98;60.63
73780;SHT30;62093;37.614;15.072;2023-07-09T11:01:35;24.98;60.62
73780;SHT30;62093;37.614;15.072;2023-07-09T11:04:24;24.99;60.61
73780;SHT30;62093;37.614;15.072;2023-07-09T11:06:53;24.99;60.60
73780;SHT30;62093;37.614;15.072;2023-07-09T11:09:31;25.02;60.57
73780;SHT30;62093;37.614;15.072;2023-07-09T11:12:19;25.02;60.54
73780;SHT30;62093;37.614;15.072;2023-07-09T11:15:03;25.02;60.56
73780;SHT30;62093;37.614;15.072;2023-07-09T11:17:31;25.02;60.53
73780;SHT30;62093;37.614;15.072;2023-07-09T11:20:00;25.05;60.56
73780;SHT30;62093;37.614;15.072;2023-07-09T11:22:39;25.07;60.52
73780;SHT30;62093;37.614;15.072;2023-07-09T11:25:09;25.05;60.50
73780;SHT30;62093;37.614;15.072;2023-07-09T11:27:53;25.05;60.50
73780;SHT30;62093;37.614;15.072;2023-07-09T11:30:25;25.07;60.48
73780;SHT30;62093;37.614;15.072;2023-07-09T11:33:01;25.07;60.52
73780;SHT30;62093;37.614;15.072;2023-07-09T11:35:41;25.07;60.46
73780;SHT30;62093;37.614;15.072;2023-07-09T11:38:21;25.08;60.45
73780;SHT30;62093;37.614;15.072;2023-07-09T11:40:55;25.09;60.43
73780;SHT30;62093;37.614;15.072;2023-07-09T11:43:47;25.08;60.43
73780;SHT30;62093;37.614;15.072;2023-07-09T11:46:17;25.07;60.43
73780;SHT30;62093;37.614;15.072;2023-07-09T11:48:44;25.08;60.39
73780;SHT30;62093;37.614;15.072;2023-07-09T11:51:17;25.12;60.37
73780;SHT30;62093;37.614;15.072;2023-07-09T11:53:50;25.11;60.40
73780;SHT30;62093;37.614;15.072;2023-07-09T11:56:22;25.12;60.37
73780;SHT30;62093;37.614;15.072;2023-07-09T11:58:51;25.12;60.35
73780;SHT30;62093;37.614;15.072;2023-07-09T12:01:26;25.14;60.35
73780;SHT30;62093;37.614;15.072;2023-07-09T12:03:56;25.12;60.34
73780;SHT30;62093;37.614;15.072;2023-07-09T12:06:32;25.14;60.32
73780;SHT30;62093;37.614;15.072;2023-07-09T12:08:59;25.12;60.33
73780;SHT30;62093;37.614;15.072;2023-07-09T12:11:28;25.14;60.33
73780;SHT30;62093;37.614;15.072;2023-07-09T12:14:05;25.16;60.31
73780;SHT30;62093;37.614;15.072;2023-07-09T12:16:39;25.16;60.33
73780;SHT30;62093;37.614;15.072;2023-07-09T12:19:07;25.19;60.25
73780;SHT30;62093;37.614;15.072;2023-07-09T12:21:37;25.16;60.28
73780;SHT30;62093;37.614;15.072;2023-07-09T12:24:12;25.18;60.26
73780;SHT30;62093;37.614;15.072;2023-07-09T12:26:40;25.19;60.24
73780;SHT30;62093;37.614;15.072;2023-07-09T12:29:09;25.19;60.25
73780;SHT30;62093;37.614;15.072;2023-07-09T12:31:35;25.19;60.20
73780;SHT30;62093;37.614;15.072;2023-07-09T12:34:01;25.19;60.23
73780;SHT30;62093;37.614;15.072;2023-07-09T12:36:28;25.20;60.22
73780;SHT30;62093;37.614;15.072;2023-07-09T12:38:57;25.22;60.20
73780;SHT30;62093;37.614;15.072;2023-07-09T12:41:29;25.22;60.17
73780;SHT30;62093;37.614;15.072;2023-07-09T12:43:58;25.22;60.19
73780;SHT30;62093;37.614;15.072;2023-07-09T12:46:24;25.25;60.17
73780;SHT30;62093;37.614;15.072;2023-07-09T12:48:51;25.23;60.19
73780;SHT30;62093;37.614;15.072;2023-07-09T12:51:21;25.26;60.18
73780;SHT30;62093;37.614;15.072;2023-07-09T12:54:13;25.28;60.15
73780;SHT30;62093;37.614;15.072;2023-07-09T12:56:40;25.25;60.13
73780;SHT30;62093;37.614;15.072;2023-07-09T12:59:22;25.26;60.18
73780;SHT30;62093;37.614;15.072;2023-07-09T13:02:11;25.26;60.12
73780;SHT30;62093;37.614;15.072;2023-07-09T13:04:39;25.26;60.09
73780;SHT30;62093;37.614;15.072;2023-07-09T13:09:54;25.28;60.13
73780;SHT30;62093;37.614;15.072;2023-07-09T13:12:29;25.28;60.08
73780;SHT30;62093;37.614;15.072;2023-07-09T13:14:56;25.30;60.06
73780;SHT30;62093;37.614;15.072;2023-07-09T13:17:22;25.32;60.07
73780;SHT30;62093;37.614;15.072;2023-07-09T13:19:48;25.32;60.06
73780;SHT30;62093;37.614;15.072;2023-07-09T13:22:17;25.33;60.06
73780;SHT30;62093;37.614;15.072;2023-07-09T13:24:45;25.33;60.00
73780;SHT30;62093;37.614;15.072;2023-07-09T13:27:15;25.32;60.00
73780;SHT30;62093;37.614;15.072;2023-07-09T13:29:42;25.33;59.96
73780;SHT30;62093;37.614;15.072;2023-07-09T13:32:10;25.36;60.00
73780;SHT30;62093;37.614;15.072;2023-07-09T13:34:36;25.35;60.00
73780;SHT30;62093;37.614;15.072;2023-07-09T13:37:02;25.38;59.98
73780;SHT30;62093;37.614;15.072;2023-07-09T13:39:28;25.38;59.97
73780;SHT30;62093;37.614;15.072;2023-07-09T13:41:54;25.36;59.97
73780;SHT30;62093;37.614;15.072;2023-07-09T13:44:26;25.39;59.93
73780;SHT30;62093;37.614;15.072;2023-07-09T13:46:53;25.39;59.91
73780;SHT30;62093;37.614;15.072;2023-07-09T13:49:21;25.40;59.90
73780;SHT30;62093;37.614;15.072;2023-07-09T13:51:49;25.39;59.89
73780;SHT30;62093;37.614;15.072;2023-07-09T13:54:18;25.40;59.89
73780;SHT30;62093;37.614;15.072;2023-07-09T13:56:44;25.39;59.86
73780;SHT30;62093;37.614;15.072;2023-07-09T13:59:17;25.42;59.88
73780;SHT30;62093;37.614;15.072;2023-07-09T14:01:44;25.40;59.85
73780;SHT30;62093;37.614;15.072;2023-07-09T14:04:12;25.43;59.84
73780;SHT30;62093;37.614;15.072;2023-07-09T14:06:39;25.40;59.82
73780;SHT30;62093;37.614;15.072;2023-07-09T14:09:05;25.43;59.84
73780;SHT30;62093;37.614;15.072;2023-07-09T14:11:32;25.43;59.79
73780;SHT30;62093;37.614;15.072;2023-07-09T14:13:58;25.43;59.83
73780;SHT30;62093;37.614;15.072;2023-07-09T14:16:24;25.45;59.82
73780;SHT30;62093;37.614;15.072;2023-07-09T14:18:50;25.45;59.79
73780;SHT30;62093;37.614;15.072;2023-07-09T14:21:25;25.45;59.79
73780;SHT30;62093;37.614;15.072;2023-07-09T14:23:53;25.46;59.79
73780;SHT30;62093;37.614;15.072;2023-07-09T14:26:19;25.45;59.75
73780;SHT30;62093;37.614;15.072;2023-07-09T14:28:44;25.46;59.75
73780;SHT30;62093;37.614;15.072;2023-07-09T14:31:21;25.45;59.75
73780;SHT30;62093;37.614;15.072;2023-07-09T14:33:48;25.46;59.75
73780;SHT30;62093;37.614;15.072;2023-07-09T14:36:14;25.50;59.73
73780;SHT30;62093;37.614;15.072;2023-07-09T14:38:40;25.49;59.75
73780;SHT30;62093;37.614;15.072;2023-07-09T14:41:19;25.49;59.72
73780;SHT30;62093;37.614;15.072;2023-07-09T14:43:46;25.47;59.70
73780;SHT30;62093;37.614;15.072;2023-07-09T14:46:12;25.50;59.74
73780;SHT30;62093;37.614;15.072;2023-07-09T14:48:38;25.51;59.70
73780;SHT30;62093;37.614;15.072;2023-07-09T14:51:14;25.49;59.63
73780;SHT30;62093;37.614;15.072;2023-07-09T14:53:41;25.49;59.70
73780;SHT30;62093;37.614;15.072;2023-07-09T14:56:07;25.50;59.68
73780;SHT30;62093;37.614;15.072;2023-07-09T14:58:35;25.51;59.62
73780;SHT30;62093;37.614;15.072;2023-07-09T15:01:00;25.53;59.69
73780;SHT30;62093;37.614;15.072;2023-07-09T15:03:26;25.50;59.67
73780;SHT30;62093;37.614;15.072;2023-07-09T15:05:53;25.50;59.71
73780;SHT30;62093;37.614;15.072;2023-07-09T15:08:24;25.51;59.69
73780;SHT30;62093;37.614;15.072;2023-07-09T15:10:52;25.50;59.66
73780;SHT30;62093;37.614;15.072;2023-07-09T15:13:37;25.51;59.71
73780;SHT30;62093;37.614;15.072;2023-07-09T15:16:03;25.51;59.62
73780;SHT30;62093;37.614;15.072;2023-07-09T15:18:30;25.54;59.64
73780;SHT30;62093;37.614;15.072;2023-07-09T15:20:57;25.53;59.67
73780;SHT30;62093;37.614;15.072;2023-07-09T15:23:24;25.53;59.68
73780;SHT30;62093;37.614;15.072;2023-07-09T15:25:51;25.54;59.64
73780;SHT30;62093;37.614;15.072;2023-07-09T15:28:17;25.56;59.73
73780;SHT30;62093;37.614;15.072;2023-07-09T15:30:43;25.54;59.62
73780;SHT30;62093;37.614;15.072;2023-07-09T15:33:17;25.57;59.70
73780;SHT30;62093;37.614;15.072;2023-07-09T15:35:45;25.54;59.66
73780;SHT30;62093;37.614;15.072;2023-07-09T15:38:31;25.60;59.67
73780;SHT30;62093;37.614;15.072;2023-07-09T15:40:59;25.60;59.63
73780;SHT30;62093;37.614;15.072;2023-07-09T15:43:25;25.59;59.64
73780;SHT30;62093;37.614;15.072;2023-07-09T15:45:54;25.60;59.60
73780;SHT30;62093;37.614;15.072;2023-07-09T15:48:30;25.59;59.59
73780;SHT30;62093;37.614;15.072;2023-07-09T15:50:56;25.60;59.56
73780;SHT30;62093;37.614;15.072;2023-07-09T15:53:22;25.59;59.60
73780;SHT30;62093;37.614;15.072;2023-07-09T15:55:48;25.57;59.57
73780;SHT30;62093;37.614;15.072;2023-07-09T15:58:24;25.60;59.64
73780;SHT30;62093;37.614;15.072;2023-07-09T16:00:51;25.60;59.65